createdAt,value
2022-08-22T00:04:35.068Z,16.6
2022-08-22T00:09:56.225Z,16.6
2022-08-22T00:16:16.248Z,16.6
2022-08-22T00:21:58.753Z,16.6
2022-08-22T00:27:43.707Z,16.6
2022-08-22T00:33:22.612Z,16.5
2022-08-22T00:39:06.542Z,16.5
2022-08-22T00:44:49.052Z,16.5
2022-08-22T00:50:19.324Z,16.4
2022-08-22T00:55:51.612Z,16.4
2022-08-22T01:01:26.971Z,16.4
2022-08-22T01:07:08.674Z,16.3
2022-08-22T01:12:56.815Z,16.3
2022-08-22T01:18:33.842Z,16.3
2022-08-22T01:24:14.261Z,16.3
2022-08-22T01:29:49.572Z,16.3
2022-08-22T01:35:33.073Z,16.3
2022-08-22T01:41:28.594Z,16.2
2022-08-22T01:47:54.307Z,16.2
2022-08-22T01:53:34.779Z,16.2
2022-08-22T01:58:57.390Z,16.1
2022-08-22T02:04:33.795Z,16.1
2022-08-22T02:10:06.309Z,16.1
2022-08-22T02:15:30.368Z,16
2022-08-22T02:20:54.272Z,15.9
2022-08-22T02:26:36.713Z,15.9
2022-08-22T02:32:28.697Z,15.8
2022-08-22T02:38:09.855Z,15.8
2022-08-22T02:43:51.231Z,15.7
2022-08-22T02:49:27.881Z,15.6
2022-08-22T02:54:53.924Z,15.6
2022-08-22T03:01:06.238Z,15.5
2022-08-22T03:06:38.717Z,15.4
2022-08-22T03:12:00.076Z,15.3
2022-08-22T03:17:39.927Z,15.3
2022-08-22T03:23:01.468Z,15.2
2022-08-22T03:29:16.189Z,15.1
2022-08-22T03:34:54.182Z,15.1
2022-08-22T03:40:31.579Z,15.1
2022-08-22T03:46:08.484Z,15.1
2022-08-22T03:51:30.171Z,15.1
2022-08-22T03:57:10.322Z,15.1
2022-08-22T04:03:33.063Z,15.1
2022-08-22T04:09:38.959Z,15.3
2022-08-22T04:15:19.839Z,15.4
2022-08-22T04:20:58.740Z,15.6
2022-08-22T04:26:46.576Z,16
2022-08-22T04:32:11.606Z,16.5
2022-08-22T04:37:35.452Z,17.3
2022-08-22T04:43:42.816Z,18.3
2022-08-22T04:49:31.410Z,19.3
2022-08-22T04:55:21.121Z,20.5
2022-08-22T05:01:03.235Z,21.8
2022-08-22T05:06:58.515Z,23.3
2022-08-22T05:12:49.387Z,24.7
2022-08-22T05:18:16.061Z,25.9
2022-08-22T05:24:08.229Z,26.9
2022-08-22T05:30:00.192Z,27.6
2022-08-22T05:35:43.951Z,28.4
2022-08-22T05:41:28.066Z,29.6
2022-08-22T05:47:03.380Z,30.6
2022-08-22T05:52:44.630Z,32.3
2022-08-22T05:58:36.304Z,35.1
2022-08-22T06:04:13.946Z,36.4
2022-08-22T06:09:52.057Z,36.5
2022-08-22T06:15:46.125Z,37.6
2022-08-22T06:21:40.679Z,42
2022-08-22T06:27:32.233Z,44.6
2022-08-22T06:33:49.306Z,48.9
2022-08-22T06:39:13.586Z,50.8
2022-08-22T06:44:52.540Z,52
2022-08-22T06:50:35.655Z,55.4
2022-08-22T06:56:19.609Z,47.9
2022-08-22T07:02:17.936Z,44.1
2022-08-22T07:07:58.751Z,44
2022-08-22T07:13:43.706Z,43.9
2022-08-22T07:19:24.944Z,44.4
2022-08-22T07:25:05.418Z,44.9
2022-08-22T07:31:03.904Z,45.3
2022-08-22T07:36:53.085Z,46.5
2022-08-22T07:42:36.118Z,47.3
2022-08-22T07:48:25.714Z,48.6
2022-08-22T07:54:47.512Z,57.1
2022-08-22T08:00:41.530Z,48.6
2022-08-22T08:06:24.621Z,58.8
2022-08-22T08:12:02.312Z,55.4
2022-08-22T08:17:49.399Z,54.1
2022-08-22T08:23:27.119Z,55.8
2022-08-22T08:29:21.957Z,54.6
2022-08-22T08:35:27.749Z,57.1
2022-08-22T08:41:39.709Z,56.1
2022-08-22T08:47:29.845Z,50
2022-08-22T08:53:15.301Z,58.4
2022-08-22T09:44:05.385Z,56.9
2022-08-22T09:49:58.765Z,58.1
2022-08-22T09:56:32.071Z,59.2
2022-08-22T10:02:32.178Z,54.6
2022-08-22T10:08:46.166Z,55.5
2022-08-22T10:14:56.866Z,61.4
2022-08-22T10:20:44.726Z,58.9
2022-08-22T10:26:22.562Z,62.5
2022-08-22T10:32:15.655Z,65.4
2022-08-22T10:38:06.790Z,56.4
2022-08-22T10:44:20.818Z,60.7
2022-08-22T10:50:30.944Z,65.5
2022-08-22T10:56:44.074Z,65.4
2022-08-22T11:03:14.496Z,65.4
2022-08-22T11:09:18.793Z,65.9
2022-08-22T11:15:13.274Z,65.3
2022-08-22T11:21:45.260Z,67.8
2022-08-22T11:28:14.176Z,68.1
2022-08-22T11:34:37.148Z,62.4
2022-08-22T11:41:03.273Z,63.4
2022-08-22T11:47:11.529Z,65.7
2022-08-22T11:53:08.463Z,58.1
2022-08-22T11:59:04.906Z,56.4
2022-08-22T12:04:58.729Z,55.8
2022-08-22T12:11:07.061Z,54.9
2022-08-22T12:17:50.561Z,55.2
2022-08-22T12:24:40.154Z,58.8
2022-08-22T12:31:11.437Z,58.1
2022-08-22T12:37:10.203Z,59.4
2022-08-22T12:43:39.887Z,70.6
2022-08-22T12:49:28.575Z,61.5
2022-08-22T12:55:24.957Z,61.2
2022-08-22T13:01:43.094Z,70.8
2022-08-22T13:07:49.201Z,60.4
2022-08-22T13:13:56.350Z,57.4
2022-08-22T13:20:26.778Z,54.9
2022-08-22T13:26:51.305Z,52.7
2022-08-22T13:33:01.051Z,48.6
2022-08-22T13:39:02.880Z,44.9
2022-08-22T13:44:52.147Z,42.1
2022-08-22T13:51:10.121Z,39.3
2022-08-22T13:57:44.533Z,36.5
2022-08-22T14:04:17.499Z,34.1
2022-08-22T14:10:50.457Z,32.2
2022-08-22T14:17:00.905Z,30.3
2022-08-22T14:29:42.508Z,26.1
2022-08-22T14:35:52.628Z,24.8
2022-08-22T14:42:12.151Z,23.7
2022-08-22T14:49:05.434Z,23.1
2022-08-22T14:55:08.097Z,22.6
2022-08-22T15:00:45.300Z,22.4
2022-08-22T15:06:39.592Z,22.3
2022-08-22T15:12:46.856Z,22.3
2022-08-22T15:18:51.512Z,22.4
2022-08-22T15:25:01.065Z,22.4
2022-08-22T15:31:11.810Z,22.6
2022-08-22T15:37:00.566Z,22.8
2022-08-22T15:43:06.753Z,23
2022-08-22T15:49:27.610Z,23.2
2022-08-22T15:55:41.593Z,23.3
2022-08-22T16:02:12.655Z,23.3
2022-08-22T16:08:00.127Z,23.1
2022-08-22T16:13:43.292Z,22.8
2022-08-22T16:19:22.608Z,22.6
2022-08-22T16:25:11.023Z,22.4
2022-08-22T16:31:26.198Z,22.3
2022-08-22T16:37:06.017Z,22.2
2022-08-22T16:42:28.818Z,22.1
2022-08-22T16:48:32.513Z,21.9
2022-08-22T16:54:09.787Z,21.8
2022-08-22T17:00:39.367Z,21.6
2022-08-22T17:06:20.782Z,21.4
2022-08-22T17:12:00.683Z,21.3
2022-08-22T17:17:44.416Z,21.1
2022-08-22T17:23:40.907Z,20.8
2022-08-22T17:29:24.435Z,20.6
2022-08-22T17:35:04.371Z,20.3
2022-08-22T17:40:46.201Z,20.1
2022-08-22T17:46:47.130Z,19.8
2022-08-22T17:52:25.826Z,19.6
2022-08-22T17:58:31.772Z,19.3
2022-08-22T18:04:25.266Z,19.1
2022-08-22T18:10:42.622Z,18.9
2022-08-22T18:16:25.080Z,18.8
2022-08-22T18:22:03.518Z,18.6
2022-08-22T18:28:25.374Z,18.4
2022-08-22T18:33:58.407Z,18.3
2022-08-22T18:39:48.640Z,18.2
2022-08-22T18:46:03.771Z,18
2022-08-22T18:52:14.299Z,17.9
2022-08-22T18:57:59.498Z,17.8
2022-08-22T19:04:12.938Z,17.7
2022-08-22T19:09:35.092Z,17.6
2022-08-22T19:14:46.188Z,17.6
2022-08-22T19:20:44.469Z,17.5
2022-08-22T19:26:22.892Z,17.5
2022-08-22T19:32:11.846Z,17.4
2022-08-22T19:38:07.741Z,17.4
2022-08-22T19:43:43.772Z,17.4
2022-08-22T19:49:07.678Z,17.3
2022-08-22T19:54:50.815Z,17.3
2022-08-22T20:00:41.527Z,17.3
2022-08-22T20:06:50.227Z,17.2
2022-08-22T20:12:29.725Z,17.1
2022-08-22T20:19:07.540Z,17.1
2022-08-22T20:30:58.910Z,16.9
2022-08-22T20:36:16.668Z,16.9
2022-08-22T20:43:45.059Z,16.9
2022-08-22T20:49:11.085Z,16.8
2022-08-22T20:54:50.500Z,16.7
2022-08-22T21:00:41.920Z,16.6
2022-08-22T21:06:23.856Z,16.6
2022-08-22T21:12:05.986Z,16.5
2022-08-22T21:17:44.546Z,16.4
2022-08-22T21:23:09.556Z,16.4
2022-08-22T21:28:35.343Z,16.3
2022-08-22T21:34:14.212Z,16.3
2022-08-22T21:39:37.386Z,16.3
2022-08-22T21:45:05.984Z,16.2
2022-08-22T21:50:57.427Z,16.1
2022-08-22T21:56:53.769Z,16.1
2022-08-22T22:03:19.435Z,16
2022-08-22T22:09:05.120Z,16
2022-08-22T22:14:43.290Z,15.9
2022-08-22T22:20:19.959Z,15.9
2022-08-22T22:26:30.031Z,15.9
2022-08-22T22:32:07.975Z,15.9
2022-08-22T22:37:50.306Z,15.9
2022-08-22T22:43:34.939Z,15.9
2022-08-22T22:49:17.415Z,15.8
2022-08-22T22:54:34.777Z,15.6
2022-08-22T23:00:52.739Z,15.6
2022-08-22T23:06:31.250Z,15.4
2022-08-22T23:12:23.455Z,15.4
2022-08-22T23:18:05.570Z,15.3
2022-08-22T23:23:51.402Z,15.2
2022-08-22T23:29:28.784Z,15.2
2022-08-22T23:35:04.664Z,15.1
2022-08-22T23:40:48.100Z,15.1
2022-08-22T23:46:31.425Z,15.1
2022-08-22T23:51:56.822Z,15.1
2022-08-22T23:57:11.761Z,15.1
